Time;durP1;ratioP1;P1;durP2;ratioP2;P2;SDS_P1;SDS_P2;PMS_P1;PMS_P2;Temp;Humidity;BMP_temperature;BMP_pressure;BME280_temperature;BME280_humidity;BME280_pressure;Samples;Min_cycle;Max_cycle;Signal;HPM_P1;HPM_P2
2023/12/03 00:01:47;;;;;;;9.75;2.83;;;0.20;99.90;;;;;;5047736;28;20087;-73
2023/12/03 00:04:13;;;;;;;2.22;2.03;;;0.10;99.90;;;;;;5046293;28;20509;-74
2023/12/03 00:06:39;;;;;;;5.53;1.83;;;0.10;99.90;;;;;;5048146;28;20138;-73
2023/12/03 00:09:05;;;;;;;2.65;1.67;;;0.20;99.90;;;;;;5050168;28;20072;-74
2023/12/03 00:11:31;;;;;;;4.72;3.03;;;0.20;99.90;;;;;;5049152;28;20052;-74
2023/12/03 00:13:57;;;;;;;2.30;1.63;;;0.10;99.90;;;;;;5049784;28;20066;-73
2023/12/03 00:16:22;;;;;;;5.18;1.67;;;0.10;99.90;;;;;;5047109;28;20036;-75
2023/12/03 00:18:48;;;;;;;3.40;1.73;;;0.20;99.90;;;;;;5048888;28;20037;-73
2023/12/03 00:21:14;;;;;;;4.25;1.92;;;0.10;99.90;;;;;;5049231;28;20037;-73
2023/12/03 00:23:40;;;;;;;5.10;1.95;;;0.20;99.90;;;;;;5048985;28;20068;-74
2023/12/03 00:26:05;;;;;;;1.52;1.05;;;0.10;99.90;;;;;;5048841;28;20500;-74
2023/12/03 00:28:31;;;;;;;3.17;2.13;;;0.20;99.90;;;;;;5049358;28;20036;-74
2023/12/03 00:30:57;;;;;;;2.63;1.52;;;0.20;99.90;;;;;;5031764;28;20048;-74
2023/12/03 00:33:22;;;;;;;1.42;1.33;;;0.20;99.90;;;;;;5048522;28;20463;-75
2023/12/03 00:35:48;;;;;;;1.48;1.38;;;0.20;99.90;;;;;;5048804;28;20056;-74
2023/12/03 00:38:14;;;;;;;3.88;2.80;;;0.20;99.90;;;;;;5048866;28;20063;-74
2023/12/03 00:40:39;;;;;;;2.38;2.05;;;0.20;99.90;;;;;;5048820;28;20094;-74
2023/12/03 00:43:05;;;;;;;2.67;2.08;;;0.20;99.90;;;;;;5049849;28;20040;-74
2023/12/03 00:45:31;;;;;;;6.75;2.63;;;0.20;99.90;;;;;;5048506;28;20106;-74
2023/12/03 00:47:56;;;;;;;4.65;1.85;;;0.20;99.90;;;;;;5045858;28;20497;-74
2023/12/03 00:50:22;;;;;;;3.90;2.08;;;0.20;99.90;;;;;;5048117;28;20029;-74
2023/12/03 00:52:48;;;;;;;2.88;1.63;;;0.20;99.90;;;;;;5045325;28;20075;-74
2023/12/03 00:55:14;;;;;;;2.55;1.48;;;0.20;99.90;;;;;;5047166;28;20060;-75
2023/12/03 00:57:39;;;;;;;3.75;2.28;;;0.20;99.90;;;;;;5047847;28;20041;-74
2023/12/03 01:00:06;;;;;;;1.63;1.45;;;0.20;99.90;;;;;;5048909;28;20045;-75
2023/12/03 01:02:34;;;;;;;2.00;1.38;;;0.20;99.90;;;;;;5049783;28;20045;-74
2023/12/03 01:04:59;;;;;;;1.73;1.50;;;0.20;99.90;;;;;;5047358;28;20155;-74
2023/12/03 01:07:25;;;;;;;2.85;2.58;;;0.20;99.90;;;;;;5032202;28;20250;-74
2023/12/03 01:09:51;;;;;;;3.25;2.13;;;0.20;99.90;;;;;;5048583;28;20037;-74
2023/12/03 01:12:16;;;;;;;2.90;1.70;;;0.20;99.90;;;;;;5048134;28;20032;-74
2023/12/03 01:14:42;;;;;;;4.47;2.33;;;0.20;99.90;;;;;;5047996;28;20493;-74
2023/12/03 01:17:08;;;;;;;3.20;1.67;;;0.20;99.90;;;;;;5047619;28;20051;-74
2023/12/03 01:19:33;;;;;;;3.42;2.08;;;0.20;99.90;;;;;;5048481;28;20455;-74
2023/12/03 01:21:59;;;;;;;3.20;1.95;;;0.20;99.90;;;;;;5048089;28;20087;-74
2023/12/03 01:24:25;;;;;;;3.72;2.17;;;0.20;99.90;;;;;;5029916;28;20044;-74
2023/12/03 01:26:50;;;;;;;3.47;2.05;;;0.20;99.90;;;;;;5046151;28;20090;-74
2023/12/03 01:29:16;;;;;;;3.47;2.65;;;0.20;99.90;;;;;;5023986;28;20056;-73
2023/12/03 01:31:42;;;;;;;5.90;1.75;;;0.20;99.90;;;;;;5044977;28;20043;-75
2023/12/03 01:34:07;;;;;;;4.55;2.58;;;0.20;99.90;;;;;;5045887;28;20065;-74
2023/12/03 01:36:33;;;;;;;5.03;2.85;;;0.10;99.90;;;;;;5046899;28;20029;-74
2023/12/03 01:38:59;;;;;;;1.13;1.02;;;0.10;99.90;;;;;;5044221;28;20095;-73
2023/12/03 01:41:25;;;;;;;3.20;1.95;;;0.10;99.90;;;;;;5043405;28;20515;-74
2023/12/03 01:43:52;;;;;;;4.35;2.08;;;0.10;99.90;;;;;;5047199;28;20041;-74
2023/12/03 01:46:21;;;;;;;7.38;2.60;;;0.20;99.90;;;;;;5046132;28;20519;-74
2023/12/03 01:48:49;;;;;;;2.15;1.80;;;0.20;99.90;;;;;;5029743;28;20049;-74
2023/12/03 01:51:15;;;;;;;2.45;1.25;;;0.20;99.90;;;;;;5048065;28;20041;-74
2023/12/03 01:53:43;;;;;;;3.97;1.83;;;0.30;99.90;;;;;;5047097;28;20528;-74
2023/12/03 01:56:10;;;;;;;1.88;1.65;;;0.30;99.90;;;;;;5047190;28;20389;-74
2023/12/03 01:58:36;;;;;;;5.40;3.42;;;0.30;99.90;;;;;;5046233;28;20042;-74
2023/12/03 02:01:02;;;;;;;2.10;1.52;;;0.40;99.90;;;;;;5028544;28;20538;-74
2023/12/03 02:03:29;;;;;;;2.95;1.90;;;0.40;99.90;;;;;;5045416;28;20037;-74
2023/12/03 02:06:05;;;;;;;5.00;3.28;;;0.50;99.90;;;;;;5046412;28;20056;-74
2023/12/03 02:08:32;;;;;;;4.28;2.88;;;0.50;99.90;;;;;;5028379;28;20044;-74
2023/12/03 02:10:59;;;;;;;3.65;2.38;;;0.60;99.90;;;;;;5030867;28;20471;-74
2023/12/03 02:13:27;;;;;;;4.60;2.83;;;0.60;99.90;;;;;;5046452;28;20378;-74
2023/12/03 02:15:53;;;;;;;8.02;2.92;;;0.70;99.90;;;;;;5023994;28;20045;-74
2023/12/03 02:18:19;;;;;;;3.03;2.20;;;0.70;99.90;;;;;;5029606;28;20036;-73
2023/12/03 02:20:45;;;;;;;2.83;1.80;;;0.70;99.90;;;;;;5045824;28;20066;-74
2023/12/03 02:23:11;;;;;;;2.35;2.13;;;0.80;99.90;;;;;;5046557;28;20111;-74
2023/12/03 02:25:36;;;;;;;4.65;2.78;;;0.80;99.90;;;;;;5047043;28;20127;-74
2023/12/03 02:28:02;;;;;;;3.50;2.58;;;0.90;99.90;;;;;;5045183;28;20037;-74
2023/12/03 02:30:27;;;;;;;3.75;2.60;;;0.90;99.90;;;;;;5045684;28;20029;-74
2023/12/03 02:32:53;;;;;;;6.60;2.72;;;0.90;99.90;;;;;;5044742;28;20033;-74
2023/12/03 02:35:19;;;;;;;5.55;2.95;;;0.90;99.90;;;;;;5046683;28;20131;-75
2023/12/03 02:37:45;;;;;;;8.68;3.17;;;0.90;99.90;;;;;;5045544;28;20037;-75
2023/12/03 02:40:10;;;;;;;4.72;2.80;;;1.00;99.90;;;;;;5046245;28;20064;-75
2023/12/03 02:42:36;;;;;;;5.20;2.70;;;1.00;99.90;;;;;;5019808;28;20052;-74
2023/12/03 02:45:03;;;;;;;3.72;3.10;;;1.00;99.90;;;;;;5042832;28;20491;-74
2023/12/03 02:47:28;;;;;;;7.45;2.67;;;1.00;99.90;;;;;;5028660;28;20064;-75
2023/12/03 02:49:55;;;;;;;2.35;2.15;;;1.10;99.90;;;;;;5046016;28;20057;-74
2023/12/03 02:52:21;;;;;;;11.90;3.00;;;1.10;99.90;;;;;;5045487;28;20102;-75
2023/12/03 02:54:46;;;;;;;4.45;2.28;;;1.10;99.90;;;;;;5027229;28;20099;-75
2023/12/03 02:57:12;;;;;;;4.25;2.92;;;1.10;99.90;;;;;;5028938;28;20047;-75
2023/12/03 02:59:38;;;;;;;4.15;2.67;;;1.20;99.90;;;;;;5045777;28;20160;-74
2023/12/03 03:02:03;;;;;;;5.07;2.97;;;1.20;99.90;;;;;;5044541;28;20037;-75
2023/12/03 03:04:29;;;;;;;4.88;2.30;;;1.10;99.90;;;;;;5028408;28;20378;-75
2023/12/03 03:06:55;;;;;;;2.42;1.95;;;1.10;99.90;;;;;;5044030;28;20041;-75
2023/12/03 03:09:20;;;;;;;4.60;3.08;;;1.10;99.90;;;;;;5045730;28;20317;-75
2023/12/03 03:11:46;;;;;;;2.58;2.33;;;1.20;99.90;;;;;;5047197;28;20452;-74
2023/12/03 03:14:12;;;;;;;8.38;3.15;;;1.20;99.90;;;;;;5046074;28;20036;-75
2023/12/03 03:16:37;;;;;;;3.67;2.72;;;1.20;99.90;;;;;;5029524;28;20474;-75
2023/12/03 03:19:05;;;;;;;3.53;3.05;;;1.30;99.90;;;;;;5029128;28;20033;-75
2023/12/03 03:21:36;;;;;;;3.55;2.75;;;1.30;99.90;;;;;;5046095;28;20241;-76
2023/12/03 03:24:02;;;;;;;2.88;2.15;;;1.30;99.90;;;;;;5046609;28;20049;-75
2023/12/03 03:26:28;;;;;;;2.70;1.80;;;1.30;99.90;;;;;;5045539;28;20417;-75
2023/12/03 03:28:53;;;;;;;4.13;3.53;;;1.30;99.90;;;;;;5028863;28;20045;-76
2023/12/03 03:31:19;;;;;;;8.98;4.13;;;1.40;99.90;;;;;;5029061;28;20082;-75
2023/12/03 03:33:45;;;;;;;5.55;2.75;;;1.40;99.90;;;;;;5046588;28;20427;-75
2023/12/03 03:36:13;;;;;;;4.90;3.08;;;1.40;99.90;;;;;;5045276;28;20037;-75
2023/12/03 03:38:41;;;;;;;6.85;3.60;;;1.30;99.90;;;;;;5030568;28;20447;-76
2023/12/03 03:41:07;;;;;;;4.93;3.35;;;1.40;99.90;;;;;;5046014;28;20373;-76
2023/12/03 03:43:32;;;;;;;4.30;3.03;;;1.40;99.90;;;;;;5046729;28;20044;-75
2023/12/03 03:45:58;;;;;;;3.08;2.63;;;1.50;99.90;;;;;;5045767;28;20049;-75
2023/12/03 03:48:24;;;;;;;6.82;3.22;;;1.40;99.90;;;;;;5046644;28;20146;-75
2023/12/03 03:50:50;;;;;;;5.55;3.75;;;1.40;99.90;;;;;;5030864;28;20036;-75
2023/12/03 03:53:15;;;;;;;7.75;3.60;;;1.40;99.90;;;;;;5049570;28;20554;-75
2023/12/03 03:55:41;;;;;;;6.88;3.95;;;1.40;99.90;;;;;;5048261;28;20536;-75
2023/12/03 03:58:07;;;;;;;2.63;2.00;;;1.40;99.90;;;;;;5050072;28;20055;-75
2023/12/03 04:00:32;;;;;;;5.38;3.53;;;1.40;99.90;;;;;;5049042;28;20092;-75
2023/12/03 04:02:58;;;;;;;5.65;2.88;;;1.50;99.90;;;;;;5046481;28;20039;-75
2023/12/03 04:05:24;;;;;;;10.00;2.00;;;1.50;99.90;;;;;;5033004;28;20193;-75
2023/12/03 04:07:50;;;;;;;3.95;2.25;;;1.50;99.90;;;;;;5050024;28;20045;-75
2023/12/03 04:10:15;;;;;;;3.72;2.83;;;1.50;99.90;;;;;;5029057;28;20041;-75
2023/12/03 04:12:41;;;;;;;3.88;2.75;;;1.50;99.90;;;;;;5031334;28;20036;-75
2023/12/03 04:15:08;;;;;;;4.63;2.78;;;1.60;99.90;;;;;;5047045;28;20040;-75
2023/12/03 04:17:34;;;;;;;4.28;2.47;;;1.40;99.90;;;;;;5049177;28;20040;-75
2023/12/03 04:19:59;;;;;;;7.90;3.75;;;1.50;99.90;;;;;;5048412;28;20037;-75
2023/12/03 04:22:25;;;;;;;4.10;2.70;;;1.50;99.90;;;;;;5045147;28;20489;-75
2023/12/03 04:24:51;;;;;;;3.92;2.20;;;1.40;99.90;;;;;;5049531;28;20047;-76
2023/12/03 04:27:17;;;;;;;11.48;3.00;;;1.40;99.90;;;;;;5032181;28;20039;-75
2023/12/03 04:29:42;;;;;;;3.97;2.67;;;1.50;99.90;;;;;;5049336;28;20096;-75
2023/12/03 04:32:09;;;;;;;5.65;3.22;;;1.40;99.90;;;;;;5030593;28;20397;-75
2023/12/03 04:34:34;;;;;;;3.40;2.17;;;1.40;99.90;;;;;;5048919;28;20071;-75
2023/12/03 04:37:00;;;;;;;3.45;2.20;;;1.40;99.90;;;;;;5031800;28;20473;-75
2023/12/03 04:39:26;;;;;;;7.80;4.22;;;1.40;99.90;;;;;;5032122;28;20063;-75
2023/12/03 04:41:51;;;;;;;3.55;2.55;;;1.40;99.90;;;;;;5048473;28;20506;-75
2023/12/03 04:44:17;;;;;;;2.83;2.08;;;1.50;99.90;;;;;;5049427;28;20404;-75
2023/12/03 04:46:43;;;;;;;6.38;3.20;;;1.40;99.90;;;;;;5031444;28;20037;-75
2023/12/03 04:49:09;;;;;;;7.28;4.10;;;1.50;99.90;;;;;;5048120;28;20049;-75
2023/12/03 04:51:35;;;;;;;4.22;2.45;;;1.50;99.90;;;;;;5032846;28;20424;-75
2023/12/03 04:54:00;;;;;;;4.20;2.20;;;1.50;99.90;;;;;;5048647;28;20469;-75
2023/12/03 04:56:26;;;;;;;9.93;3.63;;;1.50;99.90;;;;;;5047372;28;20098;-75
2023/12/03 04:58:52;;;;;;;4.47;2.88;;;1.50;99.90;;;;;;5048241;28;20036;-75
2023/12/03 05:01:18;;;;;;;6.88;3.30;;;1.50;99.90;;;;;;5047999;28;20127;-74
2023/12/03 05:03:47;;;;;;;6.78;3.53;;;1.50;99.90;;;;;;5032536;28;20464;-75
2023/12/03 05:06:13;;;;;;;5.18;3.47;;;1.50;99.90;;;;;;5048321;28;20503;-74
2023/12/03 05:08:39;;;;;;;3.20;2.55;;;1.50;99.90;;;;;;5048435;28;20134;-74
2023/12/03 05:11:06;;;;;;;6.43;3.85;;;1.50;99.90;;;;;;5048622;28;20037;-74
2023/12/03 05:13:35;;;;;;;11.70;2.30;;;1.50;99.90;;;;;;5031847;28;20048;-74
2023/12/03 05:16:02;;;;;;;5.35;3.08;;;1.50;99.90;;;;;;5043699;28;20041;-74
2023/12/03 05:18:28;;;;;;;4.72;2.60;;;1.50;99.90;;;;;;5048124;28;20036;-74
2023/12/03 05:20:54;;;;;;;4.47;2.25;;;1.50;99.90;;;;;;5048612;28;20048;-75
2023/12/03 05:23:19;;;;;;;6.43;2.83;;;1.50;99.90;;;;;;5048328;28;20107;-74
2023/12/03 05:25:45;;;;;;;2.60;2.25;;;1.50;99.90;;;;;;5046011;28;20179;-74
2023/12/03 05:28:11;;;;;;;6.90;3.55;;;1.50;99.90;;;;;;5047725;28;20354;-75
2023/12/03 05:30:37;;;;;;;4.85;2.75;;;1.60;99.90;;;;;;5030934;28;20037;-74
2023/12/03 05:33:02;;;;;;;2.47;1.60;;;1.60;99.90;;;;;;5047975;28;20106;-74
2023/12/03 05:35:28;;;;;;;8.32;3.38;;;1.60;99.90;;;;;;5048094;28;20134;-74
2023/12/03 05:37:54;;;;;;;5.38;2.80;;;1.70;99.90;;;;;;5031152;28;20040;-75
2023/12/03 05:40:20;;;;;;;4.50;2.30;;;1.60;99.90;;;;;;5047917;28;20043;-74
2023/12/03 05:42:45;;;;;;;5.35;3.20;;;1.60;99.90;;;;;;5047668;28;20072;-75
2023/12/03 05:45:11;;;;;;;8.40;3.65;;;1.60;99.90;;;;;;5047555;28;20423;-74
2023/12/03 05:47:37;;;;;;;5.78;3.45;;;1.60;99.90;;;;;;5028200;28;20485;-74
2023/12/03 05:50:04;;;;;;;3.28;2.00;;;1.60;99.90;;;;;;5031400;28;20045;-74
2023/12/03 05:52:30;;;;;;;5.97;2.80;;;1.70;99.90;;;;;;5031344;28;20051;-75
2023/12/03 05:54:55;;;;;;;8.85;3.42;;;1.60;99.90;;;;;;5047318;28;20044;-74
2023/12/03 05:57:21;;;;;;;3.38;2.47;;;1.60;99.90;;;;;;5046457;28;20049;-74
2023/12/03 05:59:47;;;;;;;6.95;3.60;;;1.70;99.90;;;;;;5048615;28;20068;-74
2023/12/03 06:02:13;;;;;;;5.65;2.85;;;1.60;99.90;;;;;;5045910;28;20048;-74
2023/12/03 06:04:40;;;;;;;5.32;2.63;;;1.70;99.90;;;;;;5047857;28;20040;-74
2023/12/03 06:07:06;;;;;;;7.05;4.03;;;1.70;99.90;;;;;;5045154;28;20412;-74
2023/12/03 06:09:32;;;;;;;6.05;3.25;;;1.70;99.90;;;;;;5048295;28;20362;-74
2023/12/03 06:11:57;;;;;;;4.97;2.80;;;1.80;99.90;;;;;;5045238;28;20554;-74
2023/12/03 06:14:23;;;;;;;9.93;3.70;;;1.70;99.90;;;;;;5026425;28;20481;-74
2023/12/03 06:16:49;;;;;;;5.85;3.08;;;1.80;99.90;;;;;;5046503;28;20041;-74
2023/12/03 06:19:14;;;;;;;5.65;3.53;;;1.80;99.90;;;;;;5027856;28;20043;-74
2023/12/03 06:21:40;;;;;;;7.80;3.55;;;1.80;99.90;;;;;;5029807;28;20040;-74
2023/12/03 06:24:06;;;;;;;9.05;4.68;;;1.80;99.90;;;;;;5046750;28;20033;-74
2023/12/03 06:26:32;;;;;;;5.40;2.97;;;1.80;99.90;;;;;;5029955;28;20702;-74
2023/12/03 06:28:58;;;;;;;6.72;3.55;;;1.80;99.90;;;;;;5046512;28;20200;-74
2023/12/03 06:31:23;;;;;;;6.30;3.60;;;1.80;99.90;;;;;;5045801;28;20060;-74
2023/12/03 06:33:49;;;;;;;5.03;2.17;;;1.80;99.90;;;;;;5044768;28;20064;-75
2023/12/03 06:36:15;;;;;;;5.18;2.85;;;1.80;99.90;;;;;;5029721;28;20044;-75
2023/12/03 06:38:41;;;;;;;4.32;2.22;;;1.80;99.90;;;;;;5029320;28;20033;-74
2023/12/03 06:41:06;;;;;;;7.90;3.67;;;1.90;99.90;;;;;;5025922;28;20401;-75
2023/12/03 06:43:32;;;;;;;8.07;2.88;;;1.80;99.90;;;;;;5046517;28;20040;-74
2023/12/03 06:45:59;;;;;;;5.88;3.40;;;1.90;99.90;;;;;;5027451;28;20322;-74
2023/12/03 06:48:25;;;;;;;7.40;4.47;;;1.90;99.90;;;;;;5045894;28;20110;-75
2023/12/03 06:50:50;;;;;;;6.80;3.35;;;1.90;99.90;;;;;;5045783;28;20052;-75
2023/12/03 06:53:16;;;;;;;5.63;3.80;;;2.00;99.90;;;;;;5045304;28;20033;-75
2023/12/03 06:55:42;;;;;;;4.38;2.15;;;1.90;99.90;;;;;;5044664;28;20434;-74
2023/12/03 06:58:07;;;;;;;9.40;3.33;;;1.90;99.90;;;;;;5045433;28;20111;-75
2023/12/03 07:00:33;;;;;;;8.27;3.42;;;1.90;99.90;;;;;;5044947;28;20036;-74
2023/12/03 07:02:59;;;;;;;3.75;2.65;;;2.00;99.90;;;;;;5044174;28;20063;-74
2023/12/03 07:05:25;;;;;;;7.53;2.88;;;1.90;99.90;;;;;;5044290;28;20489;-74
2023/12/03 07:07:51;;;;;;;4.93;3.55;;;2.00;99.90;;;;;;5029438;28;20405;-74
2023/12/03 07:10:18;;;;;;;10.88;5.45;;;1.90;99.90;;;;;;5042161;28;20033;-74
2023/12/03 07:12:44;;;;;;;3.58;2.03;;;2.00;99.90;;;;;;5046364;28;20084;-74
2023/12/03 07:15:10;;;;;;;4.80;3.30;;;2.00;99.90;;;;;;5043749;28;20068;-74
2023/12/03 07:17:36;;;;;;;8.85;5.00;;;2.00;99.90;;;;;;5029067;28;20041;-74
2023/12/03 07:20:01;;;;;;;5.07;3.00;;;2.00;99.90;;;;;;5040994;28;20066;-74
2023/12/03 07:22:27;;;;;;;7.13;3.45;;;2.00;99.90;;;;;;5044924;28;20041;-74
2023/12/03 07:24:53;;;;;;;8.25;3.95;;;2.00;99.90;;;;;;5044818;28;20044;-74
2023/12/03 07:27:19;;;;;;;8.95;3.83;;;2.00;99.90;;;;;;5047740;28;20033;-74
2023/12/03 07:29:45;;;;;;;7.10;3.33;;;2.10;99.90;;;;;;5033411;28;20040;-74
2023/12/03 07:32:11;;;;;;;4.90;3.35;;;2.00;99.90;;;;;;5050725;28;20543;-74
2023/12/03 07:34:37;;;;;;;5.00;3.15;;;2.10;99.90;;;;;;5048123;28;20037;-74
2023/12/03 07:37:03;;;;;;;5.18;2.67;;;2.00;99.90;;;;;;5029704;28;20048;-74
2023/12/03 07:39:29;;;;;;;6.53;3.00;;;2.00;99.90;;;;;;5050174;28;20041;-74
2023/12/03 07:41:54;;;;;;;7.43;3.63;;;2.00;99.90;;;;;;5028452;28;20045;-74
2023/12/03 07:44:21;;;;;;;5.30;3.20;;;2.00;99.90;;;;;;5048786;28;20954;-74
2023/12/03 07:46:47;;;;;;;5.00;2.92;;;2.00;99.90;;;;;;5046345;28;20080;-73
2023/12/03 07:49:13;;;;;;;5.90;2.90;;;2.10;99.90;;;;;;5047865;28;20309;-74
2023/12/03 07:51:40;;;;;;;4.35;2.10;;;2.00;99.90;;;;;;5045225;28;20634;-74
2023/12/03 07:54:05;;;;;;;6.60;2.90;;;2.10;99.90;;;;;;5048408;28;20445;-74
2023/12/03 07:56:38;;;;;;;6.03;2.67;;;2.10;99.90;;;;;;5047157;28;20055;-74
2023/12/03 07:59:04;;;;;;;6.25;3.47;;;2.10;99.90;;;;;;5046639;28;20175;-74
2023/12/03 08:01:30;;;;;;;6.28;3.45;;;2.00;99.90;;;;;;5047827;28;20200;-74
2023/12/03 08:03:56;;;;;;;5.55;2.65;;;2.10;99.90;;;;;;5048397;28;20047;-74
2023/12/03 08:06:22;;;;;;;9.52;3.22;;;2.20;99.90;;;;;;5030233;28;20693;-74
2023/12/03 08:08:48;;;;;;;5.90;3.83;;;2.20;99.90;;;;;;5030760;28;20144;-74
2023/12/03 08:11:14;;;;;;;8.68;4.57;;;2.20;99.90;;;;;;5049593;28;20041;-74
2023/12/03 08:13:40;;;;;;;9.05;3.63;;;2.20;99.90;;;;;;5050062;28;20036;-74
2023/12/03 08:16:06;;;;;;;3.92;2.58;;;2.20;99.90;;;;;;5047968;28;20116;-74
2023/12/03 08:18:32;;;;;;;5.57;3.33;;;2.20;99.90;;;;;;5047001;28;20457;-74
2023/12/03 08:20:59;;;;;;;9.55;3.60;;;2.30;99.90;;;;;;5047402;28;20051;-74
2023/12/03 08:23:27;;;;;;;4.40;2.60;;;2.30;99.90;;;;;;5045270;28;20127;-74
2023/12/03 08:25:54;;;;;;;7.32;3.42;;;2.30;99.90;;;;;;5047857;28;20106;-74
2023/12/03 08:28:20;;;;;;;3.45;1.88;;;2.30;99.90;;;;;;5046266;28;20041;-74
2023/12/03 08:30:46;;;;;;;2.97;2.03;;;2.40;99.90;;;;;;5031238;28;20036;-74
2023/12/03 08:33:12;;;;;;;8.90;3.22;;;2.40;99.90;;;;;;5046657;28;20516;-74
2023/12/03 08:35:38;;;;;;;7.70;3.75;;;2.40;99.90;;;;;;5048084;28;20049;-74
2023/12/03 08:38:03;;;;;;;8.60;4.38;;;2.40;99.90;;;;;;5030131;28;20059;-74
2023/12/03 08:40:29;;;;;;;7.95;4.32;;;2.40;99.90;;;;;;5048115;28;20102;-74
2023/12/03 08:42:55;;;;;;;4.93;2.83;;;2.40;99.90;;;;;;5048443;28;20446;-74
2023/12/03 08:45:20;;;;;;;10.05;3.35;;;2.40;99.90;;;;;;5046117;28;20029;-74
2023/12/03 08:47:46;;;;;;;6.68;4.00;;;2.40;99.90;;;;;;5048370;28;20132;-74
2023/12/03 08:50:12;;;;;;;3.53;3.03;;;2.40;99.90;;;;;;5031015;28;20044;-74
2023/12/03 08:52:37;;;;;;;10.70;3.58;;;2.50;99.90;;;;;;5048602;28;20041;-74
2023/12/03 08:55:04;;;;;;;11.60;5.20;;;2.50;99.90;;;;;;5025257;28;20128;-74
2023/12/03 08:57:30;;;;;;;11.43;6.22;;;2.50;99.90;;;;;;5039283;28;20175;-74
2023/12/03 08:59:55;;;;;;;10.65;5.80;;;2.50;99.90;;;;;;5037282;28;20120;-74
2023/12/03 09:02:21;;;;;;;10.43;3.53;;;2.60;99.90;;;;;;5049027;28;20536;-74
2023/12/03 09:04:47;;;;;;;7.57;4.63;;;2.70;99.90;;;;;;5041652;28;20045;-74
2023/12/03 09:07:16;;;;;;;7.10;3.80;;;2.70;99.90;;;;;;5032821;28;20041;-74
2023/12/03 09:09:42;;;;;;;10.35;6.22;;;2.70;99.90;;;;;;5043957;28;20495;-73
2023/12/03 09:12:09;;;;;;;4.93;4.00;;;2.70;99.90;;;;;;5050083;28;20500;-74
2023/12/03 09:14:34;;;;;;;7.18;4.10;;;2.70;99.90;;;;;;5045718;28;20036;-73
2023/12/03 09:17:00;;;;;;;7.40;4.80;;;2.80;99.90;;;;;;5046643;28;20452;-74
2023/12/03 09:19:26;;;;;;;6.95;3.45;;;2.80;99.90;;;;;;5048061;28;20039;-74
2023/12/03 09:21:52;;;;;;;9.05;4.28;;;2.70;99.90;;;;;;5024516;28;20041;-74
2023/12/03 09:24:17;;;;;;;8.13;4.95;;;2.70;99.90;;;;;;5028694;28;20472;-73
2023/12/03 09:26:45;;;;;;;10.15;5.63;;;2.70;99.90;;;;;;5042920;28;20476;-74
2023/12/03 09:29:12;;;;;;;9.27;4.15;;;2.80;99.90;;;;;;5046787;28;20041;-74
2023/12/03 09:31:39;;;;;;;11.38;6.32;;;2.80;99.90;;;;;;5024382;28;20071;-73
2023/12/03 09:34:06;;;;;;;11.95;5.05;;;2.80;99.90;;;;;;5042559;28;20036;-73
2023/12/03 09:36:31;;;;;;;9.48;4.82;;;2.70;99.90;;;;;;5041884;28;20436;-73
2023/12/03 09:38:57;;;;;;;8.88;4.57;;;2.70;99.90;;;;;;5047067;28;20070;-73
2023/12/03 09:41:24;;;;;;;9.38;5.13;;;2.80;99.90;;;;;;5042904;28;20140;-73
2023/12/03 09:43:55;;;;;;;7.88;4.22;;;2.80;99.90;;;;;;5044817;28;20041;-74
2023/12/03 09:46:23;;;;;;;5.05;3.75;;;2.80;99.90;;;;;;5042542;28;20044;-73
2023/12/03 09:48:52;;;;;;;8.10;4.93;;;2.70;99.90;;;;;;5042967;28;20053;-73
2023/12/03 09:51:19;;;;;;;9.50;4.60;;;2.70;99.90;;;;;;5029800;28;20543;-73
2023/12/03 09:53:48;;;;;;;8.75;6.03;;;2.60;99.90;;;;;;5027491;28;20037;-73
2023/12/03 09:56:15;;;;;;;6.40;3.22;;;2.70;99.90;;;;;;5027291;28;20033;-73
2023/12/03 09:58:44;;;;;;;7.45;4.78;;;2.70;99.90;;;;;;5041450;28;20036;-73
2023/12/03 10:01:11;;;;;;;8.73;5.03;;;2.70;99.90;;;;;;5045487;28;20536;-73
2023/12/03 10:03:36;;;;;;;8.70;4.85;;;2.70;99.90;;;;;;5047546;28;20049;-73
2023/12/03 10:06:03;;;;;;;10.95;5.50;;;2.70;99.90;;;;;;5030967;28;20045;-74
2023/12/03 10:08:34;;;;;;;7.35;4.55;;;2.70;99.90;;;;;;5029748;28;20390;-73
2023/12/03 10:11:03;;;;;;;7.53;4.55;;;2.70;99.90;;;;;;5047578;28;20068;-73
2023/12/03 10:13:31;;;;;;;10.27;5.53;;;2.80;99.90;;;;;;5031784;28;20378;-74
2023/12/03 10:15:57;;;;;;;8.15;4.82;;;2.80;99.90;;;;;;5046296;28;20300;-74
2023/12/03 10:18:23;;;;;;;12.68;4.43;;;2.80;99.90;;;;;;5046919;28;20603;-73
2023/12/03 10:21:03;;;;;;;7.70;4.75;;;2.80;99.90;;;;;;5028306;28;20049;-73
2023/12/03 10:23:29;;;;;;;7.88;4.15;;;2.80;99.90;;;;;;5043916;28;20346;-73
2023/12/03 10:26:09;;;;;;;9.85;4.50;;;2.90;99.90;;;;;;5030280;28;20041;-73
2023/12/03 10:28:35;;;;;;;9.02;4.75;;;3.00;99.90;;;;;;5047290;28;20037;-73
2023/12/03 10:31:01;;;;;;;7.47;4.85;;;3.00;99.90;;;;;;5047322;28;20382;-73
2023/12/03 10:33:27;;;;;;;11.27;4.93;;;3.00;99.90;;;;;;5045815;28;20123;-73
2023/12/03 10:35:59;;;;;;;6.47;3.72;;;3.00;99.90;;;;;;5047991;28;20047;-73
2023/12/03 10:38:25;;;;;;;6.57;4.03;;;3.00;99.90;;;;;;5028967;28;20055;-73
2023/12/03 10:40:51;;;;;;;6.28;3.70;;;3.00;99.90;;;;;;5042841;28;20044;-73
2023/12/03 10:43:17;;;;;;;6.93;3.85;;;3.10;99.90;;;;;;5045507;28;20087;-73
2023/12/03 10:45:42;;;;;;;7.00;3.53;;;3.00;99.90;;;;;;5045869;28;20041;-72
2023/12/03 10:48:10;;;;;;;7.63;3.90;;;3.00;99.90;;;;;;5046744;28;20063;-73
2023/12/03 10:50:38;;;;;;;7.13;3.70;;;2.90;99.90;;;;;;5047562;28;20037;-73
2023/12/03 10:53:05;;;;;;;7.65;4.53;;;2.90;99.90;;;;;;5025457;28;20040;-73
2023/12/03 10:55:31;;;;;;;6.75;3.83;;;2.90;99.90;;;;;;5042411;28;20115;-73
2023/12/03 10:58:03;;;;;;;5.30;3.70;;;3.00;99.90;;;;;;5046148;28;20435;-73
2023/12/03 11:00:40;;;;;;;4.70;3.58;;;3.00;99.90;;;;;;5046746;28;20045;-73
2023/12/03 11:03:23;;;;;;;6.80;4.43;;;2.90;99.90;;;;;;5047289;28;20071;-73
2023/12/03 11:05:53;;;;;;;3.53;2.75;;;2.90;99.90;;;;;;5047376;28;20496;-73
2023/12/03 11:08:28;;;;;;;8.07;3.97;;;2.90;99.90;;;;;;5028269;28;20060;-72
2023/12/03 11:11:00;;;;;;;6.00;3.75;;;2.90;99.90;;;;;;5047059;28;20126;-72
2023/12/03 11:13:27;;;;;;;5.25;3.80;;;2.90;99.90;;;;;;5044492;28;20037;-72
2023/12/03 11:15:54;;;;;;;4.85;3.00;;;2.90;99.90;;;;;;5046617;28;20116;-72
2023/12/03 11:18:21;;;;;;;3.33;2.08;;;3.00;99.90;;;;;;5045850;28;20053;-72
2023/12/03 11:20:49;;;;;;;7.40;4.30;;;3.00;99.90;;;;;;5044831;28;20056;-72
2023/12/03 11:23:33;;;;;;;4.95;3.30;;;2.90;99.90;;;;;;5046125;28;20080;-72
2023/12/03 11:26:06;;;;;;;5.30;3.30;;;2.90;99.90;;;;;;5045702;28;20040;-72
2023/12/03 11:28:32;;;;;;;7.25;3.60;;;2.90;99.90;;;;;;5028126;28;20385;-72
2023/12/03 11:30:58;;;;;;;3.05;2.58;;;2.80;99.90;;;;;;5045422;28;20132;-72
2023/12/03 11:33:27;;;;;;;8.30;3.72;;;2.80;99.90;;;;;;5047073;28;20044;-72
2023/12/03 11:35:53;;;;;;;5.82;2.72;;;2.80;99.90;;;;;;5030122;28;20040;-72
2023/12/03 11:38:22;;;;;;;6.32;3.67;;;2.80;99.90;;;;;;5043554;28;20098;-72
2023/12/03 11:40:48;;;;;;;7.07;4.45;;;2.80;99.90;;;;;;5045648;28;20100;-72
2023/12/03 11:43:32;;;;;;;8.77;4.70;;;2.80;99.90;;;;;;5046730;28;20083;-72
2023/12/03 11:45:59;;;;;;;8.43;3.83;;;2.80;99.90;;;;;;5045585;28;20048;-72
2023/12/03 11:48:30;;;;;;;5.97;2.97;;;2.80;99.90;;;;;;5041056;28;20084;-72
2023/12/03 11:50:58;;;;;;;6.38;4.93;;;2.70;99.90;;;;;;5041667;28;20045;-72
2023/12/03 11:53:39;;;;;;;7.18;4.13;;;2.60;99.90;;;;;;5045937;28;20041;-72
2023/12/03 11:56:07;;;;;;;6.78;3.67;;;2.60;99.90;;;;;;5023934;28;20033;-72
2023/12/03 11:58:33;;;;;;;8.48;3.45;;;2.50;99.90;;;;;;5043162;28;20077;-72
2023/12/03 12:00:58;;;;;;;9.10;5.00;;;2.60;99.90;;;;;;5044151;28;20168;-72
2023/12/03 12:03:25;;;;;;;7.30;4.38;;;2.50;99.90;;;;;;5042887;28;20206;-72
2023/12/03 12:05:51;;;;;;;10.90;6.70;;;2.60;99.90;;;;;;5027720;28;20049;-72
2023/12/03 12:08:20;;;;;;;12.38;6.28;;;2.60;99.90;;;;;;5045062;28;20048;-71
2023/12/03 12:10:45;;;;;;;6.50;4.53;;;2.70;99.90;;;;;;5043084;28;20393;-72
2023/12/03 12:13:11;;;;;;;10.77;5.80;;;2.80;99.90;;;;;;5048962;28;20025;-72
2023/12/03 12:15:37;;;;;;;7.43;4.40;;;2.80;99.90;;;;;;5029693;28;20040;-72
2023/12/03 12:18:03;;;;;;;7.38;3.83;;;2.80;99.90;;;;;;5050467;28;20060;-72
2023/12/03 12:20:30;;;;;;;20.15;7.30;;;2.80;99.90;;;;;;5029305;28;20060;-73
2023/12/03 12:22:56;;;;;;;10.95;5.60;;;2.80;99.90;;;;;;5049366;28;20044;-72
2023/12/03 12:25:24;;;;;;;6.38;4.43;;;2.80;99.90;;;;;;5044450;28;20055;-73
2023/12/03 12:27:51;;;;;;;8.30;5.20;;;2.80;99.90;;;;;;5047721;28;20037;-73
2023/12/03 12:30:18;;;;;;;11.38;5.53;;;2.80;99.90;;;;;;5047875;28;20028;-73
2023/12/03 12:32:45;;;;;;;7.45;4.57;;;2.80;99.90;;;;;;5048207;28;20511;-73
2023/12/03 12:35:12;;;;;;;13.38;7.28;;;2.70;99.90;;;;;;5045768;28;20044;-73
2023/12/03 12:37:38;;;;;;;9.18;3.47;;;2.70;99.90;;;;;;5047675;28;20068;-73
2023/12/03 12:40:11;;;;;;;10.07;4.75;;;2.80;99.90;;;;;;5046674;28;20040;-72
2023/12/03 12:42:42;;;;;;;6.72;3.83;;;2.70;99.90;;;;;;5029490;28;20046;-73
2023/12/03 12:45:27;;;;;;;12.00;5.55;;;2.80;99.90;;;;;;5047358;28;20056;-73
2023/12/03 12:47:53;;;;;;;10.55;4.75;;;2.70;99.90;;;;;;5044076;28;20053;-73
2023/12/03 12:50:19;;;;;;;10.77;4.60;;;2.80;99.90;;;;;;5047729;28;20489;-73
2023/12/03 12:52:54;;;;;;;4.90;3.97;;;2.80;99.90;;;;;;5048029;28;20386;-73